Terminal Aerodrome Forecast
Issued by NWS

Home | Current Version | Previous Version | Text Only | Print | Product List | Glossary On
Versions: 1 2 3 4 5 6 7 8 9 10 11 12 13
000
FTUS43 KFGF 270520
TAFDVL
TAF
KDVL 270520Z 2706/2806 11005KT P6SM FEW250
     FM270900 14006KT P6SM VCTS BKN090CB
     FM271300 11006KT P6SM VCSH SCT090 BKN150
     FM271500 08010KT P6SM FEW090 SCT200
     FM272200 04009KT P6SM SCT090 BKN140=

USA.gov is the U.S. government's official web portal to all federal, state and local government web resources and services.